Portada
METAR-TAF:

METAR-TAF

Aeroports :

Aeroport Internacional d'Osaka

Osaka, Japó

latitud: 34-47N, longitud: 135-27E, altitud: 12 m

Observació

L'informe es va fer fa 4 hores i 9 minuts, a les 11:00 UTC
Vent 11 kt del Oest amb ràfegues de 21 kt, variant entre Oest/Sud-Oest i Nord-Oest
Temperatura 6°C
Humitat 39%
Pressió 1010 hPa
Visibilitat 10 km o més
Escasses núvols a una alçada de 2500 ft

METAR: RJOO 171100Z 27011G21KT 240V310 9999 FEW025 06/M07 Q1010 RMK 1CU025 A2985

Hora: 00:09 (15:09 UTC)

Pronòstic

L'informe es va fer fa 4 hores i 3 minuts, a les 11:06 UTC
Pronòstic vàlid del 17 a les 12 UTC al 18 a les 18 UTC
Vent 10 kt del Oest
Visibilitat 10 km o més
Escasses núvols a una alçada de 2500 ft
Núvols disperses a una alçada de 4000 ft
Temporalment
l' 17 a les 20 UTC al 17 a les 22 UTC
Visibilitat: 4000 m
xàfecs de neu

TAF: RJOO 171106Z 1712/1818 28010KT 9999 FEW025 SCT040 TEMPO 1720/1722 4000 -SHSN

Observacions i pronòstics meteorològics de més de 4000 aeroports (METAR i TAF).

Les estacions disponibles són els punts grocs i vermells al mapa.

Posi el ratolí al punt desitjat per veure el nom de l'estació.

Feu clic per veure les observacions i els pronòstics meteorològics.

Per canviar el mapa: feu clic els botons verds amb una creu de color negre per apropar; al botó verd amb un guió per allunyar la imatge; o en les fletxes verdes per a mapes adjacents.


METAR-TAF: